Time;durP1;ratioP1;P1;durP2;ratioP2;P2;SDS_P1;SDS_P2;PMS_P1;PMS_P2;Temp;Humidity;BMP_temperature;BMP_pressure;BME280_temperature;BME280_humidity;BME280_pressure;Samples;Min_cycle;Max_cycle;Signal;HPM_P1;HPM_P2
2022/01/03 00:00:54;;;;;;;0.30;0.30;;;9.00;99.90;;;;;;5005969;28;20708;-79
2022/01/03 00:03:21;;;;;;;0.70;0.30;;;9.00;99.90;;;;;;5006326;28;20216;-78
2022/01/03 00:05:46;;;;;;;0.20;0.20;;;9.00;99.90;;;;;;5005501;28;20249;-78
2022/01/03 00:08:12;;;;;;;0.37;0.20;;;9.00;99.90;;;;;;5004764;28;20191;-80
2022/01/03 00:10:38;;;;;;;1.33;0.30;;;9.00;99.90;;;;;;5007104;28;20195;-77
2022/01/03 00:13:05;;;;;;;0.17;0.10;;;8.80;99.90;;;;;;5006534;28;20202;-79
2022/01/03 00:15:32;;;;;;;0.30;0.30;;;8.80;99.90;;;;;;5006296;28;20265;-79
2022/01/03 00:17:58;;;;;;;0.40;0.20;;;8.80;99.90;;;;;;5005717;28;20188;-79
2022/01/03 00:20:26;;;;;;;0.83;0.30;;;8.80;99.90;;;;;;5006627;28;20188;-80
2022/01/03 00:23:05;;;;;;;1.13;0.30;;;8.70;99.90;;;;;;5006607;28;20266;-78
2022/01/03 00:25:37;;;;;;;0.30;0.20;;;8.70;99.90;;;;;;5006287;28;20226;-79
2022/01/03 00:28:21;;;;;;;0.30;0.30;;;8.70;99.90;;;;;;5004954;28;20187;-79
2022/01/03 00:30:55;;;;;;;0.20;0.20;;;8.80;99.90;;;;;;5005081;28;20183;-78
2022/01/03 00:33:21;;;;;;;0.20;0.20;;;8.80;99.90;;;;;;5005975;28;20186;-77
2022/01/03 00:35:54;;;;;;;0.93;0.63;;;9.00;99.90;;;;;;5006055;28;20214;-78
2022/01/03 00:38:21;;;;;;;0.30;0.30;;;9.10;99.90;;;;;;5014041;28;20188;-78
2022/01/03 00:40:47;;;;;;;0.40;0.40;;;9.20;99.90;;;;;;5004853;28;20190;-78
2022/01/03 00:43:16;;;;;;;0.50;0.50;;;9.20;99.90;;;;;;5004907;28;20205;-78
2022/01/03 00:45:41;;;;;;;2.30;0.60;;;9.30;99.90;;;;;;5020896;28;20207;-77
2022/01/03 00:48:09;;;;;;;0.80;0.53;;;9.30;99.90;;;;;;5006468;28;20274;-77
2022/01/03 00:50:35;;;;;;;0.60;0.60;;;9.30;99.90;;;;;;5004991;28;20692;-77
2022/01/03 00:53:01;;;;;;;1.40;0.60;;;9.30;99.90;;;;;;5005248;28;20274;-81
2022/01/03 00:55:26;;;;;;;0.60;0.60;;;9.30;99.90;;;;;;5004638;28;20310;-79
2022/01/03 00:58:02;;;;;;;1.20;0.80;;;9.30;99.90;;;;;;5006160;28;20268;-78
2022/01/03 01:00:31;;;;;;;1.60;0.90;;;9.30;99.90;;;;;;5006395;28;20176;-79
2022/01/03 01:03:10;;;;;;;2.17;0.90;;;9.40;99.90;;;;;;5006960;28;20176;-79
2022/01/03 01:05:39;;;;;;;2.73;0.80;;;9.40;99.90;;;;;;5006026;28;21243;-79
2022/01/03 01:08:05;;;;;;;1.07;0.80;;;9.40;99.90;;;;;;5008487;28;20187;-80
2022/01/03 01:10:33;;;;;;;0.90;0.80;;;9.40;99.90;;;;;;5008272;28;20364;-81
2022/01/03 01:13:01;;;;;;;1.30;1.20;;;9.50;99.90;;;;;;5008591;28;20196;-78
2022/01/03 01:15:27;;;;;;;1.20;1.00;;;9.50;99.90;;;;;;5008257;28;20258;-80
2022/01/03 01:17:54;;;;;;;1.70;1.20;;;9.50;99.90;;;;;;5009987;28;20195;-81
2022/01/03 01:20:20;;;;;;;3.43;1.00;;;9.60;99.90;;;;;;5009671;28;20188;-79
2022/01/03 01:22:47;;;;;;;1.10;0.80;;;9.60;99.90;;;;;;5007701;28;20191;-78
2022/01/03 01:27:48;;;;;;;1.93;1.20;;;9.60;99.90;;;;;;5010011;28;20515;-78
2022/01/03 01:30:18;;;;;;;1.27;1.03;;;9.70;99.90;;;;;;5009541;28;20450;-79
2022/01/03 01:32:52;;;;;;;1.30;1.00;;;9.70;99.90;;;;;;5007747;28;21072;-79
2022/01/03 01:35:20;;;;;;;1.53;1.17;;;9.80;99.90;;;;;;5024182;28;20704;-81
2022/01/03 01:37:48;;;;;;;1.40;1.30;;;9.90;99.90;;;;;;5007750;28;20698;-77
2022/01/03 01:40:15;;;;;;;2.50;1.10;;;10.00;99.90;;;;;;5009558;28;20187;-78
2022/01/03 01:42:45;;;;;;;1.23;1.00;;;10.00;99.90;;;;;;5024510;28;20191;-80
2022/01/03 01:45:12;;;;;;;1.70;1.00;;;10.00;99.90;;;;;;5007540;28;20214;-78
2022/01/03 01:47:39;;;;;;;1.40;0.97;;;10.10;99.90;;;;;;5007969;28;21211;-79
2022/01/03 01:50:05;;;;;;;2.37;0.87;;;10.20;99.90;;;;;;5009195;28;20179;-80
2022/01/03 01:52:35;;;;;;;3.73;0.90;;;10.20;99.90;;;;;;5015940;28;20180;-81
2022/01/03 01:55:06;;;;;;;3.23;1.10;;;10.30;99.90;;;;;;5007525;28;20204;-78
2022/01/03 01:57:57;;;;;;;4.80;1.20;;;10.30;99.90;;;;;;5008725;28;20238;-79
2022/01/03 02:00:25;;;;;;;2.20;0.70;;;10.20;99.90;;;;;;5007158;28;20198;-77
2022/01/03 02:03:02;;;;;;;1.77;0.80;;;10.20;99.90;;;;;;5007036;28;20314;-79
2022/01/03 02:05:37;;;;;;;2.20;0.60;;;10.30;99.90;;;;;;5006700;28;20207;-77
2022/01/03 02:08:13;;;;;;;3.50;0.80;;;10.30;99.90;;;;;;5010137;28;20183;-77
2022/01/03 02:10:57;;;;;;;4.97;1.07;;;10.30;99.90;;;;;;5009609;28;20202;-78
2022/01/03 02:13:25;;;;;;;2.80;0.70;;;10.30;99.90;;;;;;5011134;28;20249;-78
2022/01/03 02:15:58;;;;;;;2.13;0.93;;;10.20;99.90;;;;;;5010399;28;20215;-77
2022/01/03 02:18:25;;;;;;;4.23;1.17;;;10.30;99.90;;;;;;5008662;28;20189;-79
2022/01/03 02:20:52;;;;;;;3.30;1.60;;;10.20;99.90;;;;;;5010655;28;20202;-78
2022/01/03 02:23:17;;;;;;;3.30;1.23;;;10.20;99.90;;;;;;5019011;28;20185;-78
2022/01/03 02:25:43;;;;;;;5.40;1.23;;;10.30;99.90;;;;;;5010827;28;20246;-77
2022/01/03 02:28:09;;;;;;;1.90;0.73;;;10.20;99.90;;;;;;5009552;28;20198;-78
2022/01/03 02:30:35;;;;;;;2.63;0.80;;;10.20;99.90;;;;;;5009515;28;20278;-78
2022/01/03 02:33:01;;;;;;;2.17;0.87;;;10.20;99.90;;;;;;5009805;28;20194;-77
2022/01/03 02:35:27;;;;;;;2.80;1.13;;;10.20;99.90;;;;;;5010115;28;20207;-78
2022/01/03 02:37:54;;;;;;;2.00;0.90;;;10.30;99.90;;;;;;5011321;28;20191;-77
2022/01/03 02:40:21;;;;;;;2.33;1.10;;;10.20;99.90;;;;;;5010479;28;20209;-78
2022/01/03 02:42:48;;;;;;;5.33;1.20;;;10.20;99.90;;;;;;5009367;28;20200;-78
2022/01/03 02:45:19;;;;;;;3.80;0.63;;;10.20;99.90;;;;;;5009491;28;20261;-78
2022/01/03 02:47:50;;;;;;;3.13;0.83;;;10.20;99.90;;;;;;5006534;28;20203;-78
2022/01/03 02:50:17;;;;;;;2.63;0.90;;;10.10;99.90;;;;;;5022004;28;20179;-79
2022/01/03 02:52:43;;;;;;;1.47;0.73;;;10.00;99.90;;;;;;5005473;28;20190;-79
2022/01/03 02:55:10;;;;;;;3.40;0.93;;;9.90;99.90;;;;;;5005570;28;20685;-80
2022/01/03 02:57:38;;;;;;;2.57;0.70;;;9.80;99.90;;;;;;5006034;28;20176;-78
2022/01/03 03:00:09;;;;;;;4.47;1.07;;;9.80;99.90;;;;;;5006488;28;20191;-79
2022/01/03 03:02:34;;;;;;;2.43;0.80;;;9.70;99.90;;;;;;5007115;28;20249;-78
2022/01/03 03:05:02;;;;;;;4.23;0.80;;;9.60;99.90;;;;;;5006590;28;20199;-78
2022/01/03 03:07:30;;;;;;;6.07;1.43;;;9.60;99.90;;;;;;5005186;28;20194;-78
2022/01/03 03:09:57;;;;;;;2.97;1.20;;;9.60;99.90;;;;;;5021349;28;20176;-78
2022/01/03 03:12:23;;;;;;;7.47;1.37;;;9.60;99.90;;;;;;5005433;28;20198;-78
2022/01/03 03:14:50;;;;;;;4.90;1.27;;;9.60;99.90;;;;;;5006286;28;20200;-78
2022/01/03 03:17:19;;;;;;;3.17;1.50;;;9.60;99.90;;;;;;5004975;28;20307;-78
2022/01/03 03:19:50;;;;;;;5.03;1.70;;;9.50;99.90;;;;;;5004967;28;20176;-78
2022/01/03 03:22:15;;;;;;;4.77;1.63;;;9.40;99.90;;;;;;5006261;28;20183;-78
2022/01/03 03:24:41;;;;;;;5.23;1.30;;;9.40;99.90;;;;;;5004728;28;20226;-78
2022/01/03 03:27:11;;;;;;;11.00;2.20;;;9.40;99.90;;;;;;5006018;28;20194;-78
2022/01/03 03:29:58;;;;;;;5.47;2.00;;;9.40;99.90;;;;;;4995984;28;20253;-78
2022/01/03 03:32:26;;;;;;;4.87;1.73;;;9.50;99.90;;;;;;5014209;28;20192;-79
2022/01/03 03:34:53;;;;;;;5.20;1.97;;;9.60;99.90;;;;;;5006136;28;20578;-81
2022/01/03 03:37:19;;;;;;;5.40;2.23;;;9.60;99.90;;;;;;5005084;28;20243;-79
2022/01/03 03:39:46;;;;;;;5.53;1.97;;;9.60;99.90;;;;;;5005360;28;20175;-78
2022/01/03 03:42:13;;;;;;;4.07;1.50;;;9.60;99.90;;;;;;5006891;28;20180;-80
2022/01/03 03:44:39;;;;;;;5.53;1.30;;;9.60;99.90;;;;;;5004833;28;20215;-78
2022/01/03 03:47:06;;;;;;;4.23;1.37;;;9.60;99.90;;;;;;5005445;28;21146;-78
2022/01/03 03:49:32;;;;;;;6.43;2.03;;;9.60;99.90;;;;;;5006410;28;20594;-79
2022/01/03 03:52:01;;;;;;;11.03;1.60;;;9.70;99.90;;;;;;5004835;28;20430;-77
2022/01/03 03:54:28;;;;;;;7.43;1.90;;;9.70;99.90;;;;;;5004393;28;20219;-78
2022/01/03 03:57:08;;;;;;;7.27;2.40;;;9.70;99.90;;;;;;5004896;28;20735;-79
2022/01/03 03:59:35;;;;;;;5.30;1.67;;;9.70;99.90;;;;;;5004888;28;20215;-78
2022/01/03 04:02:00;;;;;;;4.50;1.40;;;9.70;99.90;;;;;;5004763;28;20206;-79
2022/01/03 04:04:26;;;;;;;2.63;1.10;;;9.70;99.90;;;;;;5005595;28;20211;-78
2022/01/03 04:06:52;;;;;;;5.00;1.27;;;9.70;99.90;;;;;;5006267;28;20184;-78
2022/01/03 04:09:17;;;;;;;5.50;1.43;;;9.60;99.90;;;;;;5004481;28;20210;-78
2022/01/03 04:11:43;;;;;;;3.50;0.97;;;9.70;99.90;;;;;;5004465;28;20270;-79
2022/01/03 04:14:09;;;;;;;6.00;1.10;;;9.70;99.90;;;;;;5004175;28;20568;-80
2022/01/03 04:16:35;;;;;;;6.23;1.23;;;9.60;99.90;;;;;;5004499;28;20214;-77
2022/01/03 04:19:01;;;;;;;6.53;1.37;;;9.60;99.90;;;;;;5004033;28;20179;-78
2022/01/03 04:21:27;;;;;;;6.23;1.20;;;9.50;99.90;;;;;;5006201;28;20609;-78
2022/01/03 04:23:53;;;;;;;5.70;0.97;;;9.50;99.90;;;;;;5004417;28;20207;-78
2022/01/03 04:26:19;;;;;;;4.93;1.00;;;9.50;99.90;;;;;;5005295;28;20241;-77
2022/01/03 04:28:45;;;;;;;3.93;1.40;;;9.50;99.90;;;;;;5004607;28;20183;-78
2022/01/03 04:31:10;;;;;;;7.17;1.73;;;9.40;99.90;;;;;;5004158;28;20199;-78
2022/01/03 04:33:36;;;;;;;4.67;1.27;;;9.50;99.90;;;;;;5004613;28;20191;-79
2022/01/03 04:36:03;;;;;;;6.37;1.53;;;9.50;99.90;;;;;;5004138;28;20239;-79
2022/01/03 04:38:29;;;;;;;2.53;0.90;;;9.50;99.90;;;;;;5003973;28;20192;-78
2022/01/03 04:40:54;;;;;;;3.00;0.97;;;9.40;99.90;;;;;;5006277;28;20659;-80
2022/01/03 04:43:20;;;;;;;2.33;0.80;;;9.40;99.90;;;;;;5009461;28;20188;-80
2022/01/03 04:45:45;;;;;;;5.33;1.37;;;9.40;99.90;;;;;;5012151;28;20254;-78
2022/01/03 04:48:11;;;;;;;5.30;1.57;;;9.40;99.90;;;;;;5011063;28;20217;-79
2022/01/03 04:50:37;;;;;;;4.10;1.10;;;9.40;99.90;;;;;;5009006;28;20179;-79
2022/01/03 04:53:02;;;;;;;2.63;0.90;;;9.40;99.90;;;;;;5010850;28;20199;-78
2022/01/03 04:55:28;;;;;;;4.37;1.37;;;9.50;99.90;;;;;;5008721;28;20212;-79
2022/01/03 04:57:53;;;;;;;5.83;1.37;;;9.50;99.90;;;;;;5010460;28;20234;-79
2022/01/03 05:00:19;;;;;;;5.87;1.17;;;9.50;99.90;;;;;;5010347;28;20184;-79
2022/01/03 05:02:45;;;;;;;2.80;0.93;;;9.50;99.90;;;;;;5009404;28;20179;-78
2022/01/03 05:05:11;;;;;;;3.70;1.20;;;9.40;99.90;;;;;;5009547;28;20208;-79
2022/01/03 05:07:37;;;;;;;6.00;1.37;;;9.50;99.90;;;;;;5006819;28;20191;-79
2022/01/03 05:10:03;;;;;;;9.63;2.00;;;9.40;99.90;;;;;;5009932;28;20484;-79
2022/01/03 05:12:29;;;;;;;4.00;1.03;;;9.40;99.90;;;;;;5008436;28;20218;-79
2022/01/03 05:14:55;;;;;;;7.83;1.30;;;9.30;99.90;;;;;;5007906;28;20238;-78
2022/01/03 05:17:20;;;;;;;6.00;1.50;;;9.30;99.90;;;;;;5009798;28;20203;-78
2022/01/03 05:19:46;;;;;;;4.60;1.27;;;9.20;99.90;;;;;;5009349;28;20180;-78
2022/01/03 05:22:11;;;;;;;4.70;1.23;;;9.20;99.90;;;;;;5009361;28;21188;-79
2022/01/03 05:24:37;;;;;;;3.73;0.93;;;9.20;99.90;;;;;;5007863;28;20180;-78
2022/01/03 05:27:04;;;;;;;2.47;1.30;;;9.30;99.90;;;;;;5008221;28;20188;-78
2022/01/03 05:29:30;;;;;;;5.23;1.50;;;9.30;99.90;;;;;;5008188;28;20222;-78
2022/01/03 05:31:55;;;;;;;6.60;1.90;;;9.30;99.90;;;;;;5009142;28;20230;-78
2022/01/03 05:34:21;;;;;;;10.03;1.80;;;9.30;99.90;;;;;;5007749;28;20194;-80
2022/01/03 05:36:47;;;;;;;10.73;1.77;;;9.30;99.90;;;;;;5009066;28;20265;-79
2022/01/03 05:39:13;;;;;;;7.30;1.70;;;9.30;99.90;;;;;;5008072;28;20176;-79
2022/01/03 05:41:38;;;;;;;3.60;1.50;;;9.40;99.90;;;;;;5024034;28;20688;-78
2022/01/03 05:44:05;;;;;;;4.80;1.27;;;9.30;99.90;;;;;;5009033;28;20211;-80
2022/01/03 05:46:31;;;;;;;7.50;2.80;;;9.20;99.90;;;;;;5008715;28;20200;-78
2022/01/03 05:48:56;;;;;;;3.70;1.50;;;9.20;99.90;;;;;;5008823;28;20210;-78
2022/01/03 05:51:22;;;;;;;4.73;1.57;;;9.20;99.90;;;;;;5006643;28;20187;-79
2022/01/03 05:53:47;;;;;;;11.00;2.43;;;9.10;99.90;;;;;;5007857;28;20700;-79
2022/01/03 05:56:13;;;;;;;5.97;1.73;;;9.00;99.90;;;;;;5006881;28;20219;-79
2022/01/03 05:58:39;;;;;;;3.67;1.43;;;9.00;99.90;;;;;;5008433;28;20184;-79
2022/01/03 06:01:04;;;;;;;7.70;2.60;;;8.80;99.90;;;;;;5007641;28;20266;-78
2022/01/03 06:03:36;;;;;;;9.40;2.40;;;8.70;99.90;;;;;;5007233;28;20265;-78
2022/01/03 06:08:27;;;;;;;4.47;2.40;;;8.60;99.90;;;;;;5008116;28;20180;-79
2022/01/03 06:10:53;;;;;;;6.37;2.27;;;8.60;99.90;;;;;;5006488;28;20194;-78
2022/01/03 06:13:19;;;;;;;6.67;2.37;;;8.50;99.90;;;;;;5006872;28;20574;-78
2022/01/03 06:15:46;;;;;;;9.70;2.50;;;8.60;99.90;;;;;;5006266;28;20212;-78
2022/01/03 06:18:14;;;;;;;7.20;2.30;;;8.60;99.90;;;;;;5008007;28;20632;-78
2022/01/03 06:20:42;;;;;;;7.10;2.73;;;8.60;99.90;;;;;;5007414;28;20613;-78
2022/01/03 06:23:12;;;;;;;6.60;2.00;;;8.60;99.90;;;;;;5006622;28;20190;-79
2022/01/03 06:25:38;;;;;;;7.23;2.20;;;8.70;99.90;;;;;;5005950;28;20222;-78
2022/01/03 06:28:09;;;;;;;6.30;2.30;;;8.70;99.90;;;;;;5007892;28;20653;-78
2022/01/03 06:30:39;;;;;;;7.57;2.63;;;8.70;99.90;;;;;;5007185;28;20654;-79
2022/01/03 06:33:05;;;;;;;8.80;2.40;;;8.70;99.90;;;;;;5005970;28;20274;-78
2022/01/03 06:35:32;;;;;;;8.13;2.33;;;8.60;99.90;;;;;;5005776;28;20210;-79
2022/01/03 06:37:58;;;;;;;6.47;2.60;;;8.60;99.90;;;;;;5007810;28;20637;-78
2022/01/03 06:40:25;;;;;;;11.40;2.60;;;8.60;99.90;;;;;;5007328;28;20218;-79
2022/01/03 06:42:51;;;;;;;7.60;2.47;;;8.50;99.90;;;;;;5006176;28;20245;-78
2022/01/03 06:45:16;;;;;;;11.83;2.60;;;8.60;99.90;;;;;;5006670;28;20215;-78
2022/01/03 06:47:42;;;;;;;7.17;2.17;;;8.70;99.90;;;;;;5006271;28;20183;-79
2022/01/03 06:50:08;;;;;;;7.50;2.40;;;8.80;99.90;;;;;;5006106;28;20187;-78
2022/01/03 06:52:34;;;;;;;8.47;2.20;;;8.80;99.90;;;;;;5007143;28;20183;-78
2022/01/03 06:55:00;;;;;;;6.40;2.30;;;8.80;99.90;;;;;;5007625;28;20207;-78
2022/01/03 06:57:25;;;;;;;10.40;2.60;;;8.80;99.90;;;;;;5007335;28;20207;-79
2022/01/03 06:59:51;;;;;;;7.77;2.63;;;8.80;99.90;;;;;;5005975;28;20190;-79
2022/01/03 07:02:16;;;;;;;7.83;2.80;;;8.70;99.90;;;;;;5006716;28;20558;-79
2022/01/03 07:04:42;;;;;;;9.90;2.67;;;8.60;99.90;;;;;;5006575;28;20203;-78
2022/01/03 07:07:08;;;;;;;13.80;2.83;;;8.50;99.90;;;;;;5001887;28;20540;-79
2022/01/03 07:09:33;;;;;;;13.13;2.87;;;8.40;99.90;;;;;;5004083;28;20187;-79
2022/01/03 07:11:59;;;;;;;10.47;2.83;;;8.40;99.90;;;;;;5002306;28;20192;-79
2022/01/03 07:19:36;;;;;;;9.37;2.60;;;8.60;99.90;;;;;;5004259;28;20695;-79
2022/01/03 07:22:04;;;;;;;11.33;3.37;;;8.70;99.90;;;;;;5019375;28;20187;-79
2022/01/03 07:24:35;;;;;;;6.20;2.57;;;8.60;99.90;;;;;;5002282;28;20187;-81
2022/01/03 07:27:05;;;;;;;5.40;2.70;;;8.70;99.90;;;;;;5003076;28;20289;-79
2022/01/03 07:29:32;;;;;;;3.77;2.67;;;8.70;99.90;;;;;;5003506;28;20626;-78
2022/01/03 07:31:57;;;;;;;10.53;2.77;;;8.60;99.90;;;;;;5002548;28;20184;-79
2022/01/03 07:34:24;;;;;;;5.80;2.50;;;8.60;99.90;;;;;;5003360;28;20278;-78
2022/01/03 07:36:49;;;;;;;7.53;2.97;;;8.60;99.90;;;;;;5001655;28;20815;-78
2022/01/03 07:39:15;;;;;;;10.40;3.00;;;8.50;99.90;;;;;;5006760;28;20196;-78
2022/01/03 07:41:41;;;;;;;7.23;2.77;;;8.50;99.90;;;;;;5005793;28;20191;-79
2022/01/03 07:44:06;;;;;;;10.30;3.17;;;8.40;99.90;;;;;;5006914;28;20194;-79
2022/01/03 07:46:32;;;;;;;6.60;2.47;;;8.40;99.90;;;;;;5007257;28;20199;-79
2022/01/03 07:48:58;;;;;;;8.00;2.90;;;8.40;99.90;;;;;;5006123;28;20271;-78
2022/01/03 07:51:24;;;;;;;6.03;2.77;;;8.50;99.90;;;;;;5006710;28;20183;-78
2022/01/03 07:53:49;;;;;;;8.50;3.37;;;8.50;99.90;;;;;;5005293;28;20191;-79
2022/01/03 07:56:18;;;;;;;5.53;2.50;;;8.60;99.90;;;;;;5014327;28;20212;-79
2022/01/03 07:58:44;;;;;;;4.57;2.40;;;8.60;99.90;;;;;;5006665;28;20234;-79
2022/01/03 08:01:10;;;;;;;8.30;3.00;;;8.60;99.90;;;;;;5006383;28;20956;-80
2022/01/03 08:03:36;;;;;;;7.03;3.03;;;8.60;99.90;;;;;;5005189;28;20183;-78
2022/01/03 08:06:02;;;;;;;5.30;3.23;;;8.60;99.90;;;;;;5005428;28;20872;-78
2022/01/03 08:08:28;;;;;;;5.00;2.90;;;8.50;99.90;;;;;;5006324;28;20192;-78
2022/01/03 08:10:53;;;;;;;3.83;2.53;;;8.50;99.90;;;;;;5004735;28;20188;-79
2022/01/03 08:13:19;;;;;;;5.67;3.07;;;8.50;99.90;;;;;;5004733;28;20222;-78
2022/01/03 08:15:45;;;;;;;9.30;2.67;;;8.50;99.90;;;;;;5001708;28;20219;-79
2022/01/03 08:18:10;;;;;;;7.53;3.00;;;8.50;99.90;;;;;;5001454;28;20214;-79
2022/01/03 08:20:36;;;;;;;5.40;2.77;;;8.50;99.90;;;;;;5001718;28;20187;-79
2022/01/03 08:23:02;;;;;;;10.00;3.10;;;8.50;99.90;;;;;;5001571;28;20903;-78
2022/01/03 08:25:30;;;;;;;6.97;2.60;;;8.60;99.90;;;;;;5002076;28;20684;-78
2022/01/03 08:27:56;;;;;;;8.20;2.87;;;8.60;99.90;;;;;;4999935;28;20180;-79
2022/01/03 08:30:21;;;;;;;4.43;2.30;;;8.70;99.90;;;;;;5000637;28;20639;-79
2022/01/03 08:32:47;;;;;;;5.70;3.33;;;8.80;99.90;;;;;;4999370;28;20229;-78
2022/01/03 08:35:13;;;;;;;7.10;2.90;;;8.90;99.90;;;;;;5000369;28;20664;-79
2022/01/03 08:37:38;;;;;;;6.60;2.70;;;9.00;99.90;;;;;;4999343;28;20215;-81
2022/01/03 08:40:06;;;;;;;5.80;3.07;;;9.00;99.90;;;;;;4998654;28;20282;-81
2022/01/03 08:42:35;;;;;;;7.47;3.00;;;9.10;99.90;;;;;;4994748;28;20195;-79
2022/01/03 08:45:03;;;;;;;9.23;2.77;;;9.20;99.90;;;;;;4986696;28;20306;-81
2022/01/03 08:47:29;;;;;;;8.47;3.23;;;9.20;99.90;;;;;;5003379;28;20198;-79
2022/01/03 08:49:55;;;;;;;9.30;2.63;;;9.20;99.90;;;;;;4999288;28;20191;-79
2022/01/03 08:52:20;;;;;;;6.37;2.83;;;9.30;99.90;;;;;;5000541;28;20540;-78
2022/01/03 08:54:46;;;;;;;5.57;2.30;;;9.30;99.90;;;;;;5003448;28;20226;-80
2022/01/03 08:57:12;;;;;;;6.53;2.47;;;9.30;99.90;;;;;;5000222;28;20213;-79
2022/01/03 08:59:37;;;;;;;7.80;3.07;;;9.30;99.90;;;;;;5000953;28;20585;-79
2022/01/03 09:02:03;;;;;;;6.97;2.73;;;9.40;99.90;;;;;;5002183;28;20680;-79
2022/01/03 09:04:29;;;;;;;8.90;3.30;;;9.40;99.90;;;;;;5003075;28;20274;-79
2022/01/03 09:06:54;;;;;;;6.17;1.93;;;9.50;99.90;;;;;;5004275;28;20188;-80
2022/01/03 09:09:20;;;;;;;8.83;2.47;;;9.50;99.90;;;;;;5005450;28;20184;-79
2022/01/03 09:11:45;;;;;;;4.70;2.20;;;9.60;99.90;;;;;;5004271;28;21141;-79
2022/01/03 09:14:11;;;;;;;9.70;2.73;;;9.60;99.90;;;;;;5003884;28;20191;-79
2022/01/03 09:16:37;;;;;;;8.00;2.13;;;9.60;99.90;;;;;;5003080;28;20709;-80
2022/01/03 09:19:03;;;;;;;8.30;2.47;;;9.70;99.90;;;;;;5002620;28;20203;-80
2022/01/03 09:21:29;;;;;;;4.67;2.20;;;9.60;99.90;;;;;;5019083;28;20267;-80
2022/01/03 09:24:18;;;;;;;8.90;2.67;;;9.60;99.90;;;;;;5003049;28;21023;-79
2022/01/03 09:29:25;;;;;;;6.53;2.63;;;9.70;99.90;;;;;;5009091;28;20526;-79
2022/01/03 09:31:51;;;;;;;7.03;2.30;;;9.70;99.90;;;;;;5012001;28;20235;-79
2022/01/03 09:34:21;;;;;;;7.10;2.37;;;9.80;99.90;;;;;;5020110;28;20275;-80
2022/01/03 09:36:47;;;;;;;6.50;2.17;;;9.90;99.90;;;;;;5005946;28;20215;-79
2022/01/03 09:39:13;;;;;;;8.83;2.30;;;10.00;99.90;;;;;;4988835;28;20180;-79
2022/01/03 09:42:18;;;;;;;9.10;2.33;;;10.00;99.90;;;;;;4988978;28;20192;-79
2022/01/03 09:44:45;;;;;;;7.07;2.07;;;10.10;99.90;;;;;;4958698;28;20228;-78
2022/01/03 09:47:15;;;;;;;10.03;2.40;;;10.10;99.90;;;;;;4992313;28;20207;-79
2022/01/03 09:49:41;;;;;;;6.17;2.10;;;10.10;99.90;;;;;;4990242;28;20181;-78
2022/01/03 09:52:07;;;;;;;7.53;2.03;;;10.00;99.90;;;;;;4988875;28;20219;-79
2022/01/03 09:54:35;;;;;;;8.70;2.67;;;10.10;99.90;;;;;;4998339;28;20221;-78
2022/01/03 09:57:03;;;;;;;16.20;2.23;;;10.10;99.90;;;;;;4988571;28;20291;-78
2022/01/03 09:59:30;;;;;;;5.30;2.27;;;10.10;99.90;;;;;;4990754;28;20679;-80
2022/01/03 10:01:56;;;;;;;8.23;2.40;;;10.10;99.90;;;;;;4989069;28;20693;-80
2022/01/03 10:04:22;;;;;;;8.30;2.23;;;10.00;99.90;;;;;;4988073;28;20184;-79
2022/01/03 10:06:48;;;;;;;6.10;1.93;;;10.10;99.90;;;;;;4988872;28;20283;-78
2022/01/03 10:09:14;;;;;;;8.87;2.53;;;10.00;99.90;;;;;;4989317;28;20185;-78
2022/01/03 10:11:40;;;;;;;8.60;2.00;;;10.10;99.90;;;;;;4994112;28;20533;-79
2022/01/03 10:14:05;;;;;;;6.33;2.17;;;10.10;99.90;;;;;;4985600;28;20279;-78
2022/01/03 10:16:31;;;;;;;5.67;1.83;;;10.20;99.90;;;;;;4985595;28;20212;-78
2022/01/03 10:18:58;;;;;;;9.93;2.20;;;10.20;99.90;;;;;;4983748;28;20202;-78
2022/01/03 10:21:43;;;;;;;5.50;2.67;;;10.20;99.90;;;;;;5000013;28;20190;-79
2022/01/03 10:24:10;;;;;;;5.23;2.37;;;10.10;99.90;;;;;;4983352;28;20688;-79
2022/01/03 10:26:37;;;;;;;5.03;1.90;;;10.10;99.90;;;;;;4993307;28;20251;-78
2022/01/03 10:29:17;;;;;;;10.10;2.30;;;10.20;99.90;;;;;;5007236;28;20215;-79
2022/01/03 10:31:45;;;;;;;10.57;1.60;;;10.20;99.90;;;;;;4990418;28;20768;-79
2022/01/03 10:34:13;;;;;;;6.67;2.50;;;10.20;99.90;;;;;;4990199;28;20188;-79
2022/01/03 10:36:42;;;;;;;6.30;1.97;;;10.20;99.90;;;;;;4988764;28;20235;-80
2022/01/03 10:39:28;;;;;;;5.73;1.77;;;10.20;99.90;;;;;;4987438;28;20662;-79
2022/01/03 10:42:15;;;;;;;7.30;1.80;;;10.20;99.90;;;;;;5000619;28;20326;-79
2022/01/03 10:44:41;;;;;;;5.97;1.73;;;10.20;99.90;;;;;;4984216;28;20188;-79
2022/01/03 10:47:09;;;;;;;7.70;1.90;;;10.40;99.90;;;;;;5000211;28;20689;-80
2022/01/03 10:49:37;;;;;;;6.23;1.50;;;10.60;99.90;;;;;;4986207;28;20279;-80
2022/01/03 10:52:12;;;;;;;7.00;2.00;;;10.70;99.90;;;;;;4988273;28;20185;-80
2022/01/03 10:54:38;;;;;;;5.77;1.83;;;10.90;99.90;;;;;;4987555;28;20403;-81
2022/01/03 10:57:04;;;;;;;8.77;1.87;;;10.90;99.90;;;;;;4986446;28;20287;-79
2022/01/03 10:59:31;;;;;;;4.20;1.43;;;10.90;99.90;;;;;;4987833;28;20196;-80
2022/01/03 11:02:01;;;;;;;3.80;1.53;;;11.00;99.90;;;;;;4986312;28;21013;-79
2022/01/03 11:13:16;;;;;;;3.53;1.23;;;10.90;99.90;;;;;;4987475;28;20644;-78
2022/01/03 11:15:56;;;;;;;7.30;1.40;;;10.70;99.90;;;;;;4986636;28;20200;-80
2022/01/03 11:18:25;;;;;;;4.87;1.67;;;10.70;99.90;;;;;;4986293;28;20724;-80
2022/01/03 11:21:20;;;;;;;9.50;1.90;;;10.60;99.90;;;;;;4986070;28;20702;-83
2022/01/03 11:24:10;;;;;;;5.72;1.80;;;10.70;99.90;;;;;;5001467;28;20212;-81
2022/01/03 11:26:47;;;;;;;5.70;2.03;;;10.80;99.90;;;;;;4983512;28;20254;-80
2022/01/03 11:29:13;;;;;;;6.70;1.53;;;10.80;99.90;;;;;;4984447;28;20180;-80
2022/01/03 11:31:40;;;;;;;4.67;2.00;;;10.80;99.90;;;;;;4983487;28;20275;-81
2022/01/03 11:34:11;;;;;;;5.40;1.40;;;10.80;99.90;;;;;;4998006;28;20196;-79
2022/01/03 11:36:39;;;;;;;6.40;1.57;;;10.70;99.90;;;;;;4984253;28;20215;-80
2022/01/03 11:39:11;;;;;;;8.18;1.90;;;10.70;99.90;;;;;;4999508;28;20757;-80
2022/01/03 11:41:42;;;;;;;5.90;1.93;;;10.60;99.90;;;;;;4983867;28;20176;-80
2022/01/03 11:44:12;;;;;;;8.40;2.63;;;10.50;99.90;;;;;;4982379;28;20835;-80
2022/01/03 11:46:39;;;;;;;5.43;1.93;;;10.50;99.90;;;;;;4984412;28;20315;-79
2022/01/03 11:49:05;;;;;;;4.23;1.57;;;10.60;99.90;;;;;;4984878;28;20717;-81
2022/01/03 11:51:32;;;;;;;6.57;2.03;;;10.50;99.90;;;;;;4998198;28;20192;-80
2022/01/03 11:53:59;;;;;;;3.77;1.50;;;10.60;99.90;;;;;;4983591;28;20239;-81
2022/01/03 11:56:26;;;;;;;5.47;1.53;;;10.60;99.90;;;;;;4999282;28;20228;-81
2022/01/03 12:04:14;;;;;;;4.23;1.23;;;10.60;99.90;;;;;;4983870;28;20207;-79
2022/01/03 12:06:42;;;;;;;2.93;1.30;;;10.70;99.90;;;;;;4997991;28;20250;-79
2022/01/03 12:09:16;;;;;;;2.77;0.93;;;10.70;99.90;;;;;;4982323;28;20497;-80
2022/01/03 12:11:53;;;;;;;4.53;1.80;;;10.70;99.90;;;;;;4997633;28;20187;-81
2022/01/03 12:14:42;;;;;;;4.03;1.57;;;10.60;99.90;;;;;;4983062;28;20753;-81
2022/01/03 12:17:09;;;;;;;4.83;1.47;;;10.30;99.90;;;;;;4983181;28;20541;-80
2022/01/03 12:19:42;;;;;;;5.47;1.50;;;10.30;99.90;;;;;;4982897;28;20184;-80
2022/01/03 12:22:19;;;;;;;3.63;1.40;;;10.10;99.90;;;;;;4982661;28;20254;-80
2022/01/03 12:24:49;;;;;;;3.87;1.40;;;10.10;99.90;;;;;;4982937;28;20677;-80
2022/01/03 12:27:15;;;;;;;5.40;1.80;;;10.10;99.90;;;;;;4981524;28;20215;-81
2022/01/03 12:29:56;;;;;;;4.87;2.67;;;10.10;99.90;;;;;;4981162;28;20190;-78
2022/01/03 12:32:29;;;;;;;5.67;2.77;;;10.10;99.90;;;;;;4979118;28;20184;-81
2022/01/03 12:35:15;;;;;;;7.27;2.43;;;10.10;99.90;;;;;;4981728;28;20360;-79
2022/01/03 12:37:53;;;;;;;6.70;1.70;;;10.00;99.90;;;;;;4975194;28;20208;-80
2022/01/03 12:40:21;;;;;;;3.47;1.47;;;10.00;99.90;;;;;;4982393;28;20361;-78
2022/01/03 12:42:51;;;;;;;4.30;1.10;;;10.00;99.90;;;;;;4995817;28;20192;-80
2022/01/03 12:45:28;;;;;;;4.43;1.30;;;10.10;99.90;;;;;;4978270;28;20212;-80
2022/01/03 12:48:15;;;;;;;2.70;1.40;;;10.10;99.90;;;;;;4981428;28;20570;-82
2022/01/03 12:50:53;;;;;;;4.53;1.40;;;10.20;99.90;;;;;;4981116;28;20191;-80
2022/01/03 12:53:27;;;;;;;3.77;1.40;;;10.20;99.90;;;;;;4983135;28;20822;-80
2022/01/03 12:55:55;;;;;;;3.63;1.30;;;10.30;99.90;;;;;;4982653;28;20211;-79
2022/01/03 12:58:21;;;;;;;3.53;1.10;;;10.30;99.90;;;;;;5000048;28;20181;-78
2022/01/03 13:01:02;;;;;;;2.23;1.17;;;10.40;99.90;;;;;;4986327;28;20173;-80
2022/01/03 13:03:39;;;;;;;3.53;1.30;;;10.40;99.90;;;;;;5004997;28;20180;-80
2022/01/03 13:06:09;;;;;;;4.17;1.37;;;10.40;99.90;;;;;;4981950;28;20303;-80
2022/01/03 13:08:37;;;;;;;5.40;1.43;;;10.40;99.90;;;;;;4988447;28;20192;-80
2022/01/03 13:11:08;;;;;;;4.03;1.40;;;10.30;99.90;;;;;;4989922;28;20650;-78
2022/01/03 13:13:38;;;;;;;4.30;1.50;;;10.30;99.90;;;;;;5004086;28;20184;-78
2022/01/03 13:16:18;;;;;;;4.90;1.60;;;10.40;99.90;;;;;;5002105;28;20235;-79
2022/01/03 13:18:45;;;;;;;6.73;1.33;;;10.40;99.90;;;;;;4984574;28;20716;-79
2022/01/03 13:21:13;;;;;;;6.60;1.50;;;10.40;99.90;;;;;;4984915;28;20275;-78
2022/01/03 13:23:50;;;;;;;6.37;2.03;;;10.40;99.90;;;;;;4984645;28;20177;-79
2022/01/03 13:26:15;;;;;;;4.93;1.70;;;10.40;99.90;;;;;;4984651;28;20276;-78